Terminal Aerodrome Forecast
Issued by NWS Charleston, SC

Home | Current Version | Previous Version | Text Only | Print | Product List | Glossary On
Versions: 1 2 3 4 5 6 7 8 9 10 11 12 13 14 15 16 17 18 19 20 21 22 23 24 25 26 27 28 29 30 31 32 33 34
000
FTUS42 KCHS 221700 CCA
TAFSAV
TAF COR
KSAV 221757Z 2218/2318 VRB03KT P6SM BKN035 BKN150
     FM222000 14008KT P6SM SCT030 BKN150
     FM230000 VRB04KT P6SM SCT025 BKN150
     FM230800 00000KT 6SM BR SCT015 BKN035
     FM231400 26004KT P6SM SCT025 BKN040=

USA.gov is the U.S. government's official web portal to all federal, state and local government web resources and services.